Time;durP1;ratioP1;P1;durP2;ratioP2;P2;SDS_P1;SDS_P2;PMS_P1;PMS_P2;Temp;Humidity;BMP_temperature;BMP_pressure;BME280_temperature;BME280_humidity;BME280_pressure;Samples;Min_cycle;Max_cycle;Signal;HPM_P1;HPM_P2
2023/09/28 00:02:52;;;;;;;9.52;8.52;;;19.10;99.90;;;;;;4992886;28;20227;-61
2023/09/28 00:05:19;;;;;;;8.63;7.82;;;19.00;99.90;;;;;;4989077;28;20058;-60
2023/09/28 00:07:47;;;;;;;10.30;7.93;;;19.00;99.90;;;;;;4975588;28;20455;-61
2023/09/28 00:10:15;;;;;;;9.95;8.35;;;19.00;99.90;;;;;;4992708;28;20050;-62
2023/09/28 00:12:45;;;;;;;9.55;8.65;;;19.00;99.90;;;;;;4992647;28;20058;-60
2023/09/28 00:15:11;;;;;;;9.32;7.97;;;19.10;99.90;;;;;;4991697;28;20050;-60
2023/09/28 00:17:39;;;;;;;9.38;8.40;;;19.00;99.90;;;;;;4991301;28;20467;-60
2023/09/28 00:20:10;;;;;;;10.00;8.25;;;19.00;99.90;;;;;;4992658;28;20050;-62
2023/09/28 00:22:36;;;;;;;9.30;8.45;;;19.00;99.90;;;;;;4992562;28;20050;-62
2023/09/28 00:25:09;;;;;;;9.65;8.63;;;19.00;99.90;;;;;;4991701;28;20050;-60
2023/09/28 00:27:37;;;;;;;9.95;8.43;;;19.00;99.90;;;;;;4992423;28;20050;-61
2023/09/28 00:30:06;;;;;;;9.40;8.50;;;19.00;99.90;;;;;;4992365;28;20065;-60
2023/09/28 00:32:33;;;;;;;8.65;7.85;;;19.10;99.90;;;;;;4992124;28;20092;-61
2023/09/28 00:34:59;;;;;;;8.35;7.45;;;19.00;99.90;;;;;;4991334;28;20127;-60
2023/09/28 00:37:25;;;;;;;9.43;8.30;;;19.00;99.90;;;;;;4992101;28;20460;-60
2023/09/28 00:39:55;;;;;;;8.32;7.53;;;19.00;99.90;;;;;;5011354;28;20050;-61
2023/09/28 00:42:22;;;;;;;9.10;8.20;;;19.00;99.90;;;;;;5012004;28;20148;-59
2023/09/28 00:44:49;;;;;;;9.45;8.02;;;19.00;99.90;;;;;;5011032;28;20130;-61
2023/09/28 00:47:15;;;;;;;9.07;8.13;;;19.10;99.90;;;;;;5011702;28;20064;-61
2023/09/28 00:49:44;;;;;;;9.70;7.45;;;19.00;99.90;;;;;;5011810;28;20060;-61
2023/09/28 00:52:12;;;;;;;8.25;7.45;;;19.00;99.90;;;;;;5011323;28;20050;-60
2023/09/28 00:54:38;;;;;;;9.18;8.27;;;18.90;99.90;;;;;;4992590;28;20069;-61
2023/09/28 00:57:07;;;;;;;9.70;8.15;;;18.90;99.90;;;;;;5011068;28;20157;-62
2023/09/28 00:59:33;;;;;;;9.35;7.90;;;18.90;99.90;;;;;;5011543;28;20065;-60
2023/09/28 01:01:59;;;;;;;10.77;7.68;;;18.90;99.90;;;;;;5011538;28;20057;-61
2023/09/28 01:04:26;;;;;;;8.73;7.63;;;18.90;99.90;;;;;;5010366;28;20061;-60
2023/09/28 01:06:52;;;;;;;9.13;7.75;;;18.80;99.90;;;;;;5010949;28;20049;-60
2023/09/28 01:09:18;;;;;;;9.27;7.95;;;18.80;99.90;;;;;;5011274;28;20108;-61
2023/09/28 01:11:45;;;;;;;9.07;8.25;;;18.80;99.90;;;;;;5011352;28;20659;-63
2023/09/28 01:14:11;;;;;;;9.55;8.57;;;18.80;99.90;;;;;;5010567;28;20045;-61
2023/09/28 01:16:38;;;;;;;9.55;8.65;;;18.70;99.90;;;;;;5010687;28;20053;-61
2023/09/28 01:19:06;;;;;;;8.20;7.40;;;18.70;99.90;;;;;;5010322;28;20356;-62
2023/09/28 01:21:32;;;;;;;10.32;8.25;;;18.60;99.90;;;;;;5010530;28;20090;-64
2023/09/28 01:23:58;;;;;;;8.82;8.05;;;18.70;99.90;;;;;;5010047;28;20065;-62
2023/09/28 01:26:30;;;;;;;9.55;8.60;;;18.60;99.90;;;;;;5009466;28;20435;-61
2023/09/28 01:28:56;;;;;;;;;;;18.60;99.90;;;;;;5011166;28;20053;-61
2023/09/28 01:31:23;;;;;;;9.70;8.77;;;18.50;99.90;;;;;;5010915;28;19921;-62
2023/09/28 01:33:49;;;;;;;9.70;8.45;;;18.50;99.90;;;;;;5010177;28;20041;-61
2023/09/28 01:36:15;;;;;;;9.40;8.35;;;18.40;99.90;;;;;;5009777;28;20042;-61
2023/09/28 01:38:49;;;;;;;10.43;9.35;;;18.40;99.90;;;;;;5010819;28;20053;-61
2023/09/28 01:41:15;;;;;;;8.98;8.07;;;18.30;99.90;;;;;;5010653;28;20312;-60
2023/09/28 01:43:42;;;;;;;9.00;8.20;;;18.30;99.90;;;;;;5010879;28;20065;-61
2023/09/28 01:46:09;;;;;;;10.50;8.75;;;18.20;99.90;;;;;;5009535;28;20061;-62
2023/09/28 01:48:36;;;;;;;9.45;8.48;;;18.20;99.90;;;;;;5010558;28;20115;-62
2023/09/28 01:51:02;;;;;;;10.68;8.98;;;18.20;99.90;;;;;;5010258;28;20065;-61
2023/09/28 01:53:29;;;;;;;8.40;7.55;;;18.20;99.90;;;;;;5010079;28;20426;-62
2023/09/28 01:55:59;;;;;;;9.85;8.38;;;18.00;99.90;;;;;;4992022;28;20466;-62
2023/09/28 01:58:26;;;;;;;10.75;8.57;;;18.00;99.90;;;;;;5010256;28;20431;-62
2023/09/28 02:00:52;;;;;;;10.73;9.07;;;18.10;99.90;;;;;;5010483;28;20057;-61
2023/09/28 02:03:21;;;;;;;10.40;9.23;;;18.00;99.90;;;;;;5010293;28;20053;-61
2023/09/28 02:05:52;;;;;;;9.38;8.38;;;17.90;99.90;;;;;;4991842;28;20050;-62
2023/09/28 02:08:19;;;;;;;9.82;8.63;;;17.90;99.90;;;;;;5010378;28;20050;-61
2023/09/28 02:10:46;;;;;;;10.02;8.95;;;17.90;99.90;;;;;;5010247;28;20053;-61
2023/09/28 02:13:13;;;;;;;9.57;8.43;;;17.90;99.90;;;;;;5009717;28;20046;-61
2023/09/28 02:15:42;;;;;;;10.68;9.10;;;17.80;99.90;;;;;;5009125;28;20064;-62
2023/09/28 02:18:08;;;;;;;11.20;9.38;;;17.90;99.90;;;;;;5009883;28;20042;-62
2023/09/28 02:20:35;;;;;;;9.85;8.85;;;17.80;99.90;;;;;;5009870;28;20061;-62
2023/09/28 02:23:01;;;;;;;10.65;9.00;;;17.70;99.90;;;;;;5009691;28;20359;-62
2023/09/28 02:25:28;;;;;;;11.70;9.75;;;17.60;99.90;;;;;;5009127;28;20068;-61
2023/09/28 02:27:54;;;;;;;10.52;9.05;;;17.60;99.90;;;;;;5009784;28;20053;-61
2023/09/28 02:30:24;;;;;;;12.00;9.52;;;17.60;99.90;;;;;;5009460;28;20494;-62
2023/09/28 02:32:52;;;;;;;12.68;10.20;;;17.60;99.90;;;;;;5009533;28;20443;-62
2023/09/28 02:35:19;;;;;;;14.93;10.82;;;17.50;99.90;;;;;;4991444;28;20430;-62
2023/09/28 02:37:48;;;;;;;13.55;11.98;;;17.50;99.90;;;;;;5012347;28;20052;-62
2023/09/28 02:40:15;;;;;;;14.35;12.68;;;17.40;99.90;;;;;;5013775;28;20060;-62
2023/09/28 02:42:42;;;;;;;12.38;11.10;;;17.40;99.90;;;;;;5013996;28;20406;-61
2023/09/28 02:45:12;;;;;;;13.30;11.93;;;17.30;99.90;;;;;;5003003;28;20042;-60
2023/09/28 02:47:46;;;;;;;14.50;12.45;;;17.40;99.90;;;;;;5014020;28;20050;-61
2023/09/28 02:50:14;;;;;;;15.02;12.32;;;17.30;99.90;;;;;;5014100;28;20129;-62
2023/09/28 02:52:42;;;;;;;15.15;12.82;;;17.30;99.90;;;;;;5013926;28;20077;-60
2023/09/28 02:55:13;;;;;;;14.20;11.90;;;17.30;99.90;;;;;;5012982;28;20065;-61
2023/09/28 02:57:40;;;;;;;13.77;12.10;;;17.20;99.90;;;;;;5013738;28;20093;-60
2023/09/28 03:02:42;;;;;;;14.45;12.70;;;17.10;99.90;;;;;;5013554;28;20522;-61
2023/09/28 03:05:09;;;;;;;15.50;12.63;;;17.10;99.90;;;;;;5012285;28;20046;-61
2023/09/28 03:07:39;;;;;;;14.18;12.68;;;17.10;99.90;;;;;;5013434;28;20057;-61
2023/09/28 03:10:07;;;;;;;14.18;12.75;;;17.00;99.90;;;;;;5013756;28;20045;-61
2023/09/28 03:12:33;;;;;;;15.32;12.85;;;17.00;99.90;;;;;;5013503;28;20042;-61
2023/09/28 03:14:59;;;;;;;14.43;12.35;;;17.00;99.90;;;;;;5012495;28;20057;-62
2023/09/28 03:17:26;;;;;;;15.95;12.75;;;16.90;99.90;;;;;;5013050;28;20490;-60
2023/09/28 03:19:52;;;;;;;14.23;12.18;;;16.90;99.90;;;;;;5013405;28;20165;-59
2023/09/28 03:22:20;;;;;;;14.15;12.20;;;16.90;99.90;;;;;;5013325;28;20449;-60
2023/09/28 03:24:46;;;;;;;13.45;10.95;;;16.80;99.90;;;;;;5015505;28;20366;-61
2023/09/28 03:27:13;;;;;;;13.75;12.15;;;16.80;99.90;;;;;;4995873;28;20053;-60
2023/09/28 03:29:41;;;;;;;12.63;11.23;;;16.70;99.90;;;;;;5013040;28;20359;-60
2023/09/28 03:32:08;;;;;;;13.80;10.43;;;16.70;99.90;;;;;;5013038;28;20058;-60
2023/09/28 03:34:34;;;;;;;12.40;10.38;;;16.70;99.90;;;;;;5012316;28;20050;-60
2023/09/28 03:37:02;;;;;;;13.10;10.00;;;16.70;99.90;;;;;;5012805;28;20419;-61
2023/09/28 03:39:30;;;;;;;13.13;10.35;;;16.70;99.90;;;;;;5012165;28;20085;-60
2023/09/28 03:41:56;;;;;;;10.70;9.60;;;16.70;99.90;;;;;;5013011;28;20054;-60
2023/09/28 03:44:22;;;;;;;11.02;9.70;;;16.70;99.90;;;;;;5012122;28;20128;-61
2023/09/28 03:46:48;;;;;;;11.65;9.75;;;16.70;99.90;;;;;;5012433;28;20050;-61
2023/09/28 03:49:15;;;;;;;10.77;9.68;;;16.70;99.90;;;;;;5011604;28;20604;-61
2023/09/28 03:51:41;;;;;;;11.10;8.75;;;16.80;99.90;;;;;;5012751;28;20046;-61
2023/09/28 03:54:08;;;;;;;12.95;9.30;;;16.70;99.90;;;;;;5011152;28;20050;-60
2023/09/28 03:56:34;;;;;;;10.95;8.63;;;16.80;99.90;;;;;;5012436;28;20303;-61
2023/09/28 03:59:00;;;;;;;9.57;8.68;;;16.70;99.90;;;;;;5012254;28;20046;-61
2023/09/28 04:01:27;;;;;;;10.95;8.90;;;16.80;99.90;;;;;;5012140;28;20042;-60
2023/09/28 04:03:53;;;;;;;9.68;8.68;;;16.70;99.90;;;;;;5012029;28;20473;-61
2023/09/28 04:06:20;;;;;;;10.45;9.35;;;16.80;99.90;;;;;;5011757;28;20042;-60
2023/09/28 04:08:46;;;;;;;9.27;8.38;;;16.70;99.90;;;;;;5012365;28;20148;-61
2023/09/28 04:11:12;;;;;;;10.25;9.20;;;16.70;99.90;;;;;;5012743;28;20366;-60
2023/09/28 04:13:38;;;;;;;11.40;9.07;;;16.80;99.90;;;;;;5011924;28;20113;-60
2023/09/28 04:16:05;;;;;;;9.68;8.00;;;16.70;99.90;;;;;;5011883;28;20666;-61
2023/09/28 04:18:31;;;;;;;9.48;8.57;;;16.70;99.90;;;;;;5012313;28;20057;-61
2023/09/28 04:20:58;;;;;;;11.25;9.25;;;16.70;99.90;;;;;;5012169;28;20144;-61
2023/09/28 04:23:24;;;;;;;9.82;8.38;;;16.70;99.90;;;;;;5012099;28;20053;-60
2023/09/28 04:25:50;;;;;;;13.20;9.00;;;16.70;99.90;;;;;;5011265;28;20060;-59
2023/09/28 04:28:23;;;;;;;12.40;8.77;;;16.70;99.90;;;;;;5012194;28;20046;-61
2023/09/28 04:30:49;;;;;;;10.38;8.95;;;16.70;99.90;;;;;;5011913;28;20061;-61
2023/09/28 04:33:16;;;;;;;12.60;7.47;;;16.60;99.90;;;;;;5010275;28;20406;-61
2023/09/28 04:35:42;;;;;;;11.38;9.80;;;16.60;99.90;;;;;;5009971;28;20104;-60
2023/09/28 04:38:10;;;;;;;11.10;9.88;;;16.60;99.90;;;;;;5010205;28;20046;-61
2023/09/28 04:40:37;;;;;;;11.30;9.52;;;16.50;99.90;;;;;;5010459;28;20042;-61
2023/09/28 04:43:03;;;;;;;10.27;9.10;;;16.50;99.90;;;;;;5010840;28;20042;-60
2023/09/28 04:45:29;;;;;;;11.38;9.85;;;16.50;99.90;;;;;;5010755;28;20045;-60
2023/09/28 04:47:55;;;;;;;12.68;9.07;;;16.40;99.90;;;;;;5011327;28;20049;-62
2023/09/28 04:50:22;;;;;;;10.88;9.75;;;16.40;99.90;;;;;;4993897;28;20054;-61
2023/09/28 04:52:48;;;;;;;11.02;9.93;;;16.30;99.90;;;;;;5011186;28;20439;-61
2023/09/28 04:55:15;;;;;;;11.43;9.70;;;16.40;99.90;;;;;;5010621;28;20081;-61
2023/09/28 04:57:41;;;;;;;11.15;10.05;;;16.30;99.90;;;;;;5011282;28;20061;-59
2023/09/28 05:00:10;;;;;;;11.73;9.80;;;16.30;99.90;;;;;;5011065;28;20108;-61
2023/09/28 05:02:36;;;;;;;12.38;9.27;;;16.30;99.90;;;;;;5011297;28;20046;-61
2023/09/28 05:05:05;;;;;;;11.20;9.05;;;16.30;99.90;;;;;;5010349;28;20049;-61
2023/09/28 05:07:31;;;;;;;10.60;8.70;;;16.30;99.90;;;;;;4993885;28;20053;-59
2023/09/28 05:09:58;;;;;;;11.63;8.70;;;16.40;99.90;;;;;;5011321;28;20053;-61
2023/09/28 05:12:25;;;;;;;9.75;7.50;;;16.30;99.90;;;;;;5011448;28;20118;-59
2023/09/28 05:14:51;;;;;;;12.70;8.25;;;16.30;99.90;;;;;;5010143;28;20046;-59
2023/09/28 05:17:17;;;;;;;10.75;7.10;;;16.30;99.90;;;;;;5009988;28;20041;-59
2023/09/28 05:19:43;;;;;;;8.88;7.13;;;16.30;99.90;;;;;;5010184;28;20038;-61
2023/09/28 05:22:10;;;;;;;11.75;6.70;;;16.30;99.90;;;;;;5010864;28;20443;-61
2023/09/28 05:24:36;;;;;;;10.27;6.40;;;16.40;99.90;;;;;;5010002;28;20276;-59
2023/09/28 05:27:03;;;;;;;10.25;6.57;;;16.40;99.90;;;;;;5010996;28;20074;-61
2023/09/28 05:29:30;;;;;;;8.23;6.97;;;16.40;99.90;;;;;;5010878;28;20434;-60
2023/09/28 05:31:56;;;;;;;10.35;7.65;;;16.50;99.90;;;;;;5011137;28;20050;-59
2023/09/28 05:34:22;;;;;;;11.18;6.65;;;16.40;99.90;;;;;;5010304;28;20046;-59
2023/09/28 05:36:48;;;;;;;10.43;6.82;;;16.40;99.90;;;;;;4993683;28;20061;-58
2023/09/28 05:39:15;;;;;;;11.68;6.82;;;16.30;99.90;;;;;;5010445;28;20058;-62
2023/09/28 05:41:42;;;;;;;11.60;6.18;;;16.30;99.90;;;;;;5010385;28;20394;-60
2023/09/28 05:44:11;;;;;;;10.57;6.43;;;16.40;99.90;;;;;;5008972;28;20050;-61
2023/09/28 05:46:37;;;;;;;11.07;6.63;;;16.30;99.90;;;;;;5010229;28;20050;-61
2023/09/28 05:49:04;;;;;;;9.38;6.65;;;16.30;99.90;;;;;;5010011;28;20049;-60
2023/09/28 05:51:31;;;;;;;13.38;7.15;;;16.30;99.90;;;;;;5010264;28;20060;-60
2023/09/28 05:53:58;;;;;;;9.98;6.93;;;16.40;99.90;;;;;;5009099;28;20054;-61
2023/09/28 05:56:24;;;;;;;10.02;7.03;;;16.30;99.90;;;;;;5009912;28;20255;-61
2023/09/28 05:58:50;;;;;;;10.13;7.28;;;16.30;99.90;;;;;;5009432;28;20046;-60
2023/09/28 06:01:18;;;;;;;10.25;6.97;;;16.30;99.90;;;;;;5009711;28;20045;-62
2023/09/28 06:03:44;;;;;;;9.57;7.38;;;16.30;99.90;;;;;;5010119;28;20041;-63
2023/09/28 06:06:14;;;;;;;11.80;6.45;;;16.30;99.90;;;;;;4988635;28;20042;-61
2023/09/28 06:08:48;;;;;;;8.38;6.03;;;16.30;99.90;;;;;;5005651;28;20275;-60
2023/09/28 06:11:15;;;;;;;9.63;6.25;;;16.30;99.90;;;;;;5007964;28;20050;-60
2023/09/28 06:13:43;;;;;;;10.15;6.35;;;16.40;99.90;;;;;;5008565;28;20143;-61
2023/09/28 06:16:14;;;;;;;11.50;6.15;;;16.60;99.90;;;;;;5007524;28;20470;-61
2023/09/28 06:18:42;;;;;;;14.00;6.22;;;16.60;99.90;;;;;;5005417;28;20440;-61
2023/09/28 06:21:08;;;;;;;10.10;6.22;;;16.70;99.90;;;;;;5008192;28;20045;-58
2023/09/28 06:23:35;;;;;;;9.82;5.60;;;16.80;99.90;;;;;;5008093;28;20076;-59
2023/09/28 06:26:04;;;;;;;11.57;6.13;;;16.90;99.90;;;;;;5009355;28;20395;-62
2023/09/28 06:28:30;;;;;;;11.60;5.88;;;17.00;99.90;;;;;;5009241;28;20045;-62
2023/09/28 06:30:58;;;;;;;13.68;5.90;;;17.00;99.90;;;;;;5009018;28;20080;-62
2023/09/28 06:33:25;;;;;;;11.55;5.45;;;17.00;99.90;;;;;;5009492;28;20418;-60
2023/09/28 06:35:54;;;;;;;11.00;4.88;;;17.00;99.90;;;;;;5009235;28;20394;-60
2023/09/28 06:38:20;;;;;;;11.70;5.20;;;17.00;99.90;;;;;;5008839;28;20053;-61
2023/09/28 06:40:50;;;;;;;13.13;5.80;;;17.00;99.90;;;;;;5007458;28;20049;-62
2023/09/28 06:43:16;;;;;;;12.70;4.93;;;17.10;99.90;;;;;;5011056;28;20430;-60
2023/09/28 06:45:43;;;;;;;11.02;5.22;;;17.00;99.90;;;;;;5011486;28;20423;-60
2023/09/28 06:48:09;;;;;;;16.15;5.65;;;17.00;99.90;;;;;;5011309;28;20060;-60
2023/09/28 06:50:39;;;;;;;14.30;5.45;;;17.00;99.90;;;;;;5011216;28;20050;-61
2023/09/28 06:53:06;;;;;;;13.98;5.80;;;17.00;99.90;;;;;;5011341;28;20050;-62
2023/09/28 06:55:32;;;;;;;13.07;4.68;;;17.10;99.90;;;;;;5010686;28;20056;-60
2023/09/28 06:57:59;;;;;;;10.70;4.65;;;17.00;99.90;;;;;;5010984;28;20366;-59
2023/09/28 07:00:25;;;;;;;13.10;4.40;;;17.10;99.90;;;;;;5011170;28;20112;-58
2023/09/28 07:02:54;;;;;;;15.90;5.15;;;17.10;99.90;;;;;;5011317;28;20462;-59
2023/09/28 07:05:22;;;;;;;13.05;4.18;;;17.10;99.90;;;;;;5010912;28;20072;-61
2023/09/28 07:07:48;;;;;;;20.92;4.65;;;17.10;99.90;;;;;;5011099;28;20393;-60
2023/09/28 07:10:15;;;;;;;17.08;5.30;;;17.20;99.90;;;;;;5011174;28;20073;-63
2023/09/28 07:12:41;;;;;;;14.27;4.10;;;17.20;99.90;;;;;;5010731;28;20378;-62
2023/09/28 07:15:08;;;;;;;13.93;4.90;;;17.30;99.90;;;;;;5010448;28;20038;-60
2023/09/28 07:17:36;;;;;;;15.82;4.95;;;17.40;99.90;;;;;;5010811;28;20133;-59
2023/09/28 07:20:03;;;;;;;14.15;5.38;;;17.40;99.90;;;;;;5010807;28;20061;-60
2023/09/28 07:22:30;;;;;;;15.07;5.43;;;17.50;99.90;;;;;;5011374;28;20105;-61
2023/09/28 07:24:56;;;;;;;15.25;4.68;;;17.80;99.90;;;;;;5013731;28;20176;-62
2023/09/28 07:27:22;;;;;;;14.70;4.85;;;17.90;99.90;;;;;;5014574;28;20058;-59
2023/09/28 07:29:50;;;;;;;17.17;5.80;;;18.00;99.90;;;;;;5013704;28;20053;-60
2023/09/28 07:32:16;;;;;;;15.25;5.57;;;18.10;99.90;;;;;;5014416;28;20069;-58
2023/09/28 07:34:42;;;;;;;16.42;5.00;;;18.20;99.90;;;;;;5014059;28;20038;-59
2023/09/28 07:37:09;;;;;;;13.57;4.22;;;18.30;99.90;;;;;;4995983;28;20591;-59
2023/09/28 07:39:35;;;;;;;14.25;5.00;;;18.30;99.90;;;;;;5013154;28;20053;-61
2023/09/28 07:42:07;;;;;;;16.05;4.88;;;18.30;99.90;;;;;;4997321;28;20050;-62
2023/09/28 07:44:33;;;;;;;14.95;4.82;;;18.30;99.90;;;;;;5014267;28;20451;-59
2023/09/28 07:46:59;;;;;;;13.45;4.85;;;18.30;99.90;;;;;;4996649;28;20378;-58
2023/09/28 07:49:26;;;;;;;15.52;5.22;;;18.30;99.90;;;;;;5013938;28;20045;-61
2023/09/28 07:51:55;;;;;;;12.05;5.50;;;18.30;99.90;;;;;;5014422;28;20187;-59
2023/09/28 07:54:25;;;;;;;15.43;5.00;;;18.30;99.90;;;;;;5013895;28;20045;-59
2023/09/28 07:56:52;;;;;;;15.10;5.03;;;18.30;99.90;;;;;;5014273;28;20053;-59
2023/09/28 07:59:18;;;;;;;15.90;5.03;;;18.30;99.90;;;;;;5013504;28;20050;-62
2023/09/28 08:01:44;;;;;;;15.80;4.95;;;18.20;99.90;;;;;;5014160;28;20069;-59
2023/09/28 08:04:11;;;;;;;15.23;4.97;;;18.30;99.90;;;;;;5013734;28;20490;-58
2023/09/28 08:06:37;;;;;;;17.38;5.35;;;18.20;99.90;;;;;;5013721;28;20054;-61
2023/09/28 08:09:03;;;;;;;15.35;4.55;;;18.20;99.90;;;;;;5013235;28;20378;-59
2023/09/28 08:11:30;;;;;;;14.30;4.95;;;18.30;99.90;;;;;;5013622;28;20463;-60
2023/09/28 08:13:56;;;;;;;15.52;5.18;;;18.30;99.90;;;;;;5013398;28;20050;-59
2023/09/28 08:16:22;;;;;;;16.85;4.97;;;18.40;99.90;;;;;;5013261;28;20368;-61
2023/09/28 08:18:49;;;;;;;13.63;4.82;;;18.50;99.90;;;;;;5013407;28;20078;-59
2023/09/28 08:21:16;;;;;;;13.05;5.25;;;18.50;99.90;;;;;;5014094;28;20041;-59
2023/09/28 08:23:42;;;;;;;11.38;4.65;;;18.60;99.90;;;;;;5013801;28;20049;-59
2023/09/28 08:26:08;;;;;;;15.85;4.85;;;18.60;99.90;;;;;;5013342;28;20080;-60
2023/09/28 08:28:35;;;;;;;16.52;4.78;;;18.50;99.90;;;;;;5013153;28;20057;-59
2023/09/28 08:31:04;;;;;;;19.92;5.13;;;18.50;99.90;;;;;;5013702;28;20038;-59
2023/09/28 08:33:30;;;;;;;17.73;4.82;;;18.50;99.90;;;;;;5013554;28;20052;-59
2023/09/28 08:35:57;;;;;;;20.40;4.90;;;18.40;99.90;;;;;;5013034;28;20049;-61
2023/09/28 08:38:23;;;;;;;17.85;5.05;;;18.50;99.90;;;;;;5013221;28;20050;-60
2023/09/28 08:40:53;;;;;;;16.02;4.70;;;18.50;99.90;;;;;;5013355;28;20042;-59
2023/09/28 08:43:23;;;;;;;15.48;4.57;;;18.50;99.90;;;;;;5013582;28;20045;-59
2023/09/28 08:45:52;;;;;;;15.60;4.22;;;18.50;99.90;;;;;;5012740;28;20409;-58
2023/09/28 08:48:21;;;;;;;19.20;4.80;;;18.50;99.90;;;;;;4995662;28;20068;-60
2023/09/28 08:50:53;;;;;;;22.83;4.68;;;18.70;99.90;;;;;;5013353;28;20057;-60
2023/09/28 08:53:20;;;;;;;15.25;4.43;;;18.70;99.90;;;;;;5013116;28;20149;-60
2023/09/28 08:55:46;;;;;;;17.33;5.00;;;18.80;99.90;;;;;;5012635;28;20049;-59
2023/09/28 08:58:14;;;;;;;19.85;4.72;;;18.80;99.90;;;;;;5013376;28;20045;-60
2023/09/28 09:00:40;;;;;;;18.30;4.68;;;18.90;99.90;;;;;;5012860;28;20050;-59
2023/09/28 09:03:08;;;;;;;23.35;4.75;;;19.00;99.90;;;;;;5013159;28;20096;-59
2023/09/28 09:05:39;;;;;;;16.75;4.75;;;19.00;99.90;;;;;;5013003;28;20742;-60
2023/09/28 09:08:07;;;;;;;19.17;4.25;;;19.10;99.90;;;;;;4995616;28;20335;-60
2023/09/28 09:10:35;;;;;;;19.23;3.95;;;19.10;99.90;;;;;;5012954;28;20050;-60
2023/09/28 09:13:01;;;;;;;21.33;4.72;;;19.10;99.90;;;;;;5012609;28;20060;-60
2023/09/28 09:15:28;;;;;;;15.73;4.35;;;19.10;99.90;;;;;;5012399;28;20057;-58
2023/09/28 09:18:01;;;;;;;20.52;4.72;;;19.20;99.90;;;;;;5013130;28;20072;-59
2023/09/28 09:20:29;;;;;;;18.13;3.88;;;19.10;99.90;;;;;;5012540;28;20057;-60
2023/09/28 09:22:55;;;;;;;22.55;4.95;;;19.20;99.90;;;;;;5011910;28;20037;-59
2023/09/28 09:25:21;;;;;;;17.90;4.60;;;19.30;99.90;;;;;;5011983;28;20046;-59
2023/09/28 09:27:48;;;;;;;20.50;3.88;;;19.20;99.90;;;;;;5012586;28;20065;-60
2023/09/28 09:30:15;;;;;;;21.10;5.38;;;19.30;99.90;;;;;;5012184;28;20085;-60
2023/09/28 09:32:42;;;;;;;15.70;4.68;;;19.20;99.90;;;;;;5012688;28;20434;-59
2023/09/28 09:35:10;;;;;;;18.58;3.97;;;19.20;99.90;;;;;;5012070;28;20038;-60
2023/09/28 09:37:50;;;;;;;19.73;5.00;;;19.30;99.90;;;;;;5012339;28;20050;-60
2023/09/28 09:40:17;;;;;;;21.58;5.05;;;19.20;99.90;;;;;;5012193;28;20050;-59
2023/09/28 09:42:43;;;;;;;18.80;5.10;;;19.30;99.90;;;;;;5012823;28;20053;-59
2023/09/28 09:45:11;;;;;;;19.65;5.00;;;19.30;99.90;;;;;;5011846;28;20125;-59
2023/09/28 09:47:49;;;;;;;21.23;4.65;;;19.30;99.90;;;;;;5011520;28;20423;-60
2023/09/28 09:50:17;;;;;;;21.45;4.45;;;19.40;99.90;;;;;;5011764;28;20129;-60
2023/09/28 09:52:44;;;;;;;24.13;5.18;;;19.50;99.90;;;;;;5012295;28;20053;-59
2023/09/28 09:55:12;;;;;;;17.48;4.00;;;19.60;99.90;;;;;;5011828;28;20116;-59
2023/09/28 09:57:40;;;;;;;16.92;4.35;;;19.60;99.90;;;;;;5011979;28;20064;-61
2023/09/28 10:00:08;;;;;;;18.10;4.60;;;19.60;99.90;;;;;;5011682;28;20057;-61
2023/09/28 10:02:40;;;;;;;19.10;4.55;;;19.50;99.90;;;;;;5011427;28;20870;-58
2023/09/28 10:05:09;;;;;;;16.35;4.80;;;19.50;99.90;;;;;;5011754;28;20101;-60
2023/09/28 10:07:37;;;;;;;15.57;4.32;;;19.60;99.90;;;;;;5012083;28;20506;-58
2023/09/28 10:10:05;;;;;;;19.80;4.80;;;19.60;99.90;;;;;;5011547;28;20466;-58
2023/09/28 10:12:31;;;;;;;17.67;4.43;;;19.70;99.90;;;;;;5011771;28;20057;-59
2023/09/28 10:14:59;;;;;;;19.63;4.35;;;19.80;99.90;;;;;;5011209;28;20571;-60
2023/09/28 10:17:26;;;;;;;13.05;4.10;;;19.90;99.90;;;;;;5011703;28;20053;-60
2023/09/28 10:19:57;;;;;;;17.15;3.95;;;20.00;99.90;;;;;;4993762;28;20125;-59
2023/09/28 10:22:26;;;;;;;16.25;4.32;;;20.10;99.90;;;;;;5011460;28;20062;-59
2023/09/28 10:24:53;;;;;;;16.58;3.88;;;20.10;99.90;;;;;;5008470;28;20463;-60
2023/09/28 10:27:19;;;;;;;16.00;4.07;;;20.10;99.90;;;;;;5011238;28;20052;-61
2023/09/28 10:29:45;;;;;;;14.23;4.30;;;20.20;99.90;;;;;;5009578;28;20068;-62
2023/09/28 10:32:29;;;;;;;17.60;4.95;;;20.20;99.90;;;;;;5011281;28;20054;-59
2023/09/28 10:35:32;;;;;;;20.05;4.68;;;20.40;99.90;;;;;;5008661;28;20034;-60
2023/09/28 10:38:21;;;;;;;16.27;4.45;;;20.40;99.90;;;;;;5009557;28;20073;-61
2023/09/28 10:41:08;;;;;;;16.95;3.67;;;20.40;99.90;;;;;;5010401;28;20049;-61
2023/09/28 10:43:45;;;;;;;20.10;4.25;;;20.50;99.90;;;;;;5011037;28;20054;-61
2023/09/28 10:46:11;;;;;;;20.08;5.07;;;20.40;99.90;;;;;;5010185;28;20049;-61
2023/09/28 10:48:42;;;;;;;18.88;4.18;;;20.50;99.90;;;;;;4992308;28;20053;-62
2023/09/28 10:51:13;;;;;;;16.92;3.85;;;20.40;99.90;;;;;;5009568;28;20362;-61
2023/09/28 10:53:39;;;;;;;14.73;4.40;;;20.40;99.90;;;;;;4993950;28;20045;-61
2023/09/28 10:56:10;;;;;;;19.98;4.22;;;20.30;99.90;;;;;;5008351;28;20042;-61
2023/09/28 10:58:38;;;;;;;14.23;4.00;;;20.40;99.90;;;;;;5013237;28;20443;-60
2023/09/28 11:01:06;;;;;;;16.63;3.65;;;20.30;99.90;;;;;;5015349;28;20813;-61
2023/09/28 11:03:34;;;;;;;14.43;4.55;;;20.40;99.90;;;;;;5014870;28;20064;-60
2023/09/28 11:06:04;;;;;;;19.50;4.63;;;20.40;99.90;;;;;;5013259;28;20050;-62
2023/09/28 11:08:31;;;;;;;17.17;3.92;;;20.40;99.90;;;;;;5014406;28;20493;-61
2023/09/28 11:11:02;;;;;;;14.57;4.40;;;20.40;99.90;;;;;;5013441;28;20484;-61
2023/09/28 11:13:30;;;;;;;21.10;3.95;;;20.40;99.90;;;;;;5014621;28;20124;-61
2023/09/28 11:15:57;;;;;;;14.60;4.13;;;20.40;99.90;;;;;;5014780;28;20053;-62
2023/09/28 11:18:25;;;;;;;16.13;4.00;;;20.40;99.90;;;;;;5015045;28;20188;-61
2023/09/28 11:20:53;;;;;;;14.93;4.53;;;20.40;99.90;;;;;;4995766;28;20042;-61
2023/09/28 11:23:20;;;;;;;15.07;4.32;;;20.40;99.90;;;;;;4995378;28;20057;-61
2023/09/28 11:25:47;;;;;;;18.60;4.57;;;20.30;99.90;;;;;;5014607;28;20050;-59
2023/09/28 11:28:14;;;;;;;15.75;4.18;;;20.30;99.90;;;;;;5014662;28;20050;-61
2023/09/28 11:30:41;;;;;;;18.95;4.00;;;20.30;99.90;;;;;;5013862;28;20425;-62
2023/09/28 11:33:07;;;;;;;16.55;4.05;;;20.30;99.90;;;;;;5014536;28;20054;-62
2023/09/28 11:35:34;;;;;;;14.57;4.32;;;20.30;99.90;;;;;;5013926;28;20073;-61
2023/09/28 11:38:02;;;;;;;15.45;4.45;;;20.30;99.90;;;;;;5013549;28;20058;-61
2023/09/28 11:40:30;;;;;;;14.55;4.38;;;20.40;99.90;;;;;;5014934;28;20164;-62
2023/09/28 11:42:58;;;;;;;15.75;4.43;;;20.30;99.90;;;;;;4997748;28;20810;-61
2023/09/28 11:45:36;;;;;;;15.82;4.88;;;20.40;99.90;;;;;;5014644;28;20064;-61
2023/09/28 11:48:09;;;;;;;15.13;4.93;;;20.40;99.90;;;;;;5014604;28;20050;-61
2023/09/28 11:50:37;;;;;;;18.33;4.82;;;20.40;99.90;;;;;;4997330;28;20056;-58
2023/09/28 11:53:08;;;;;;;18.70;4.15;;;20.40;99.90;;;;;;5014425;28;20363;-61
2023/09/28 11:55:36;;;;;;;14.77;3.92;;;20.50;99.90;;;;;;5014216;28;20050;-61
2023/09/28 11:58:05;;;;;;;14.43;4.10;;;20.50;99.90;;;;;;5014022;28;20042;-61
2023/09/28 12:00:31;;;;;;;18.42;4.22;;;20.40;99.90;;;;;;5014474;28;20045;-61
2023/09/28 12:02:57;;;;;;;17.15;4.95;;;20.40;99.90;;;;;;5014585;28;20054;-59
2023/09/28 12:05:23;;;;;;;14.90;3.85;;;20.50;99.90;;;;;;5014162;28;20057;-60
2023/09/28 12:07:50;;;;;;;11.30;3.80;;;20.50;99.90;;;;;;5014455;28;20054;-61
2023/09/28 12:10:17;;;;;;;15.73;3.80;;;20.60;99.90;;;;;;5013350;28;20050;-61
2023/09/28 12:12:44;;;;;;;15.48;3.50;;;20.70;99.90;;;;;;5014035;28;20367;-59
2023/09/28 12:15:14;;;;;;;17.08;4.72;;;20.80;99.90;;;;;;5013994;28;20061;-59
2023/09/28 12:17:41;;;;;;;14.57;4.13;;;20.80;99.90;;;;;;5014002;28;20427;-60
2023/09/28 12:20:09;;;;;;;14.77;4.50;;;20.70;99.90;;;;;;5013863;28;20626;-61
2023/09/28 12:22:36;;;;;;;18.38;4.55;;;20.70;99.90;;;;;;4996602;28;20482;-60
2023/09/28 12:25:04;;;;;;;16.25;4.28;;;20.70;99.90;;;;;;5013644;28;20056;-61
2023/09/28 12:27:32;;;;;;;14.55;4.05;;;20.80;99.90;;;;;;5013882;28;20046;-58
2023/09/28 12:29:59;;;;;;;13.93;4.25;;;20.80;99.90;;;;;;5013259;28;20093;-59
2023/09/28 12:32:28;;;;;;;16.55;3.97;;;20.80;99.90;;;;;;5013538;28;20454;-58
2023/09/28 12:35:02;;;;;;;14.13;4.25;;;20.80;99.90;;;;;;5013302;28;20046;-59
2023/09/28 12:37:29;;;;;;;14.32;3.45;;;20.80;99.90;;;;;;5005694;28;20344;-59
2023/09/28 12:39:55;;;;;;;15.00;4.22;;;20.80;99.90;;;;;;5013179;28;20057;-59
2023/09/28 12:42:24;;;;;;;16.55;4.35;;;20.90;99.90;;;;;;5013913;28;20049;-59
2023/09/28 12:44:51;;;;;;;13.75;4.05;;;21.00;99.90;;;;;;5012963;28;20320;-60